createdAt,value
2022-09-27T00:01:00.909Z,99.34
2022-09-27T00:03:32.217Z,99.16
2022-09-27T00:06:15.829Z,99.20
2022-09-27T00:08:43.710Z,99.71
2022-09-27T00:11:34.636Z,99.99
2022-09-27T00:14:02.721Z,99.83
2022-09-27T00:16:32.321Z,100.00
2022-09-27T00:19:06.317Z,100.00
2022-09-27T00:21:34.136Z,100.00
2022-09-27T00:24:01.758Z,99.94
2022-09-27T00:26:29.911Z,99.42
2022-09-27T00:28:57.867Z,99.33
2022-09-27T00:31:29.814Z,99.64
2022-09-27T00:34:02.202Z,100.00
2022-09-27T00:36:30.561Z,99.87
2022-09-27T00:39:01.758Z,99.27
2022-09-27T00:41:32.343Z,98.53
2022-09-27T00:44:24.631Z,99.07
2022-09-27T00:47:01.844Z,99.07
2022-09-27T00:49:38.050Z,98.50
2022-09-27T00:52:10.200Z,99.09
2022-09-27T00:54:41.004Z,98.72
2022-09-27T00:57:09.175Z,100.00
2022-09-27T00:59:43.708Z,100.00
2022-09-27T01:02:11.770Z,100.00
2022-09-27T01:04:42.967Z,100.00
2022-09-27T01:07:10.670Z,100.00
2022-09-27T01:09:38.148Z,100.00
2022-09-27T01:12:23.954Z,100.00
2022-09-27T01:14:54.242Z,100.00
2022-09-27T01:17:30.107Z,100.00
2022-09-27T01:20:25.421Z,100.00
2022-09-27T01:23:23.288Z,100.00
2022-09-27T01:26:09.558Z,100.00
2022-09-27T01:28:40.211Z,100.00
2022-09-27T01:31:23.127Z,100.00
2022-09-27T01:34:09.843Z,100.00
2022-09-27T01:36:43.347Z,100.00
2022-09-27T01:39:34.420Z,100.00
2022-09-27T01:42:30.541Z,100.00
2022-09-27T01:45:23.026Z,100.00
2022-09-27T01:48:22.175Z,100.00
2022-09-27T01:50:57.144Z,100.00
2022-09-27T01:53:33.332Z,100.00
2022-09-27T01:56:46.258Z,100.00
2022-09-27T01:59:29.793Z,100.00
2022-09-27T02:02:18.180Z,100.00
2022-09-27T02:05:11.715Z,100.00
2022-09-27T02:07:53.468Z,100.00
2022-09-27T02:10:29.214Z,100.00
2022-09-27T02:13:47.113Z,100.00
2022-09-27T02:16:53.069Z,100.00
2022-09-27T02:19:53.340Z,100.00
2022-09-27T02:22:35.649Z,100.00
2022-09-27T02:25:24.402Z,99.64
2022-09-27T02:28:12.399Z,99.92
2022-09-27T02:30:41.879Z,100.00
2022-09-27T02:33:43.877Z,100.00
2022-09-27T02:36:11.621Z,100.00
2022-09-27T02:38:40.005Z,100.00
2022-09-27T02:41:15.807Z,100.00
2022-09-27T02:43:47.239Z,100.00
2022-09-27T02:46:25.973Z,99.10
2022-09-27T02:49:27.492Z,98.16
2022-09-27T02:52:12.993Z,98.83
2022-09-27T02:54:52.448Z,100.00
2022-09-27T02:57:48.831Z,100.00
2022-09-27T03:00:48.183Z,100.00
2022-09-27T03:03:58.083Z,100.00
2022-09-27T03:06:25.935Z,100.00
2022-09-27T03:08:54.343Z,100.00
2022-09-27T03:11:21.687Z,100.00
2022-09-27T03:14:07.345Z,100.00
2022-09-27T03:16:38.058Z,100.00
2022-09-27T03:19:25.904Z,100.00
2022-09-27T03:22:19.303Z,100.00
2022-09-27T03:24:46.932Z,100.00
2022-09-27T03:27:14.366Z,100.00
2022-09-27T03:29:41.905Z,100.00
2022-09-27T03:32:10.797Z,100.00
2022-09-27T03:34:58.464Z,100.00
2022-09-27T03:37:29.302Z,100.00
2022-09-27T03:39:56.688Z,100.00
2022-09-27T03:42:24.386Z,100.00
2022-09-27T03:44:52.762Z,100.00
2022-09-27T03:47:20.159Z,100.00
2022-09-27T03:49:48.145Z,100.00
2022-09-27T03:52:16.902Z,100.00
2022-09-27T03:54:45.481Z,100.00
2022-09-27T03:57:12.965Z,100.00
2022-09-27T03:59:40.989Z,100.00
2022-09-27T04:02:27.951Z,100.00
2022-09-27T04:05:28.976Z,100.00
2022-09-27T04:08:23.156Z,100.00
2022-09-27T04:10:51.939Z,100.00
2022-09-27T04:13:19.531Z,100.00
2022-09-27T04:15:54.218Z,100.00
2022-09-27T04:18:39.894Z,100.00
2022-09-27T04:21:13.151Z,100.00
2022-09-27T04:23:46.999Z,100.00
2022-09-27T04:26:17.477Z,100.00
2022-09-27T04:28:55.063Z,100.00
2022-09-27T04:31:23.333Z,100.00
2022-09-27T04:33:54.825Z,100.00
2022-09-27T04:36:28.021Z,100.00
2022-09-27T04:39:10.956Z,100.00
2022-09-27T04:41:41.458Z,100.00
2022-09-27T04:44:08.843Z,100.00
2022-09-27T04:46:36.475Z,100.00
2022-09-27T04:49:03.938Z,100.00
2022-09-27T04:51:33.700Z,100.00
2022-09-27T04:54:01.895Z,100.00
2022-09-27T04:56:35.258Z,100.00
2022-09-27T04:59:09.739Z,100.00
2022-09-27T05:01:39.281Z,100.00
2022-09-27T05:04:18.118Z,100.00
2022-09-27T05:06:56.313Z,100.00
2022-09-27T05:09:31.933Z,100.00
2022-09-27T05:11:59.803Z,100.00
2022-09-27T05:14:33.345Z,100.00
2022-09-27T05:17:12.629Z,100.00
2022-09-27T05:19:59.744Z,100.00
2022-09-27T05:22:40.296Z,100.00
2022-09-27T05:25:08.654Z,100.00
2022-09-27T05:27:36.002Z,100.00
2022-09-27T05:30:05.745Z,100.00
2022-09-27T05:32:49.291Z,100.00
2022-09-27T05:35:36.143Z,100.00
2022-09-27T05:38:04.095Z,100.00
2022-09-27T05:40:42.719Z,100.00
2022-09-27T05:43:11.974Z,100.00
2022-09-27T05:45:39.404Z,100.00
2022-09-27T05:48:08.307Z,100.00
2022-09-27T05:50:45.432Z,100.00
2022-09-27T05:53:13.447Z,100.00
2022-09-27T05:55:43.103Z,100.00
2022-09-27T05:58:11.486Z,100.00
2022-09-27T06:00:44.730Z,100.00
2022-09-27T06:03:33.525Z,100.00
2022-09-27T06:06:23.701Z,100.00
2022-09-27T06:08:55.330Z,100.00
2022-09-27T06:11:25.436Z,100.00
2022-09-27T06:13:52.947Z,100.00
2022-09-27T06:16:20.828Z,100.00
2022-09-27T06:18:48.240Z,100.00
2022-09-27T06:21:16.611Z,100.00
2022-09-27T06:23:54.202Z,100.00
2022-09-27T06:26:29.228Z,100.00
2022-09-27T06:29:22.291Z,100.00
2022-09-27T06:31:59.216Z,100.00
2022-09-27T06:34:46.814Z,100.00
2022-09-27T06:37:15.319Z,100.00
2022-09-27T06:39:42.842Z,100.00
2022-09-27T06:42:33.575Z,100.00
2022-09-27T06:45:20.083Z,100.00
2022-09-27T06:48:13.058Z,100.00
2022-09-27T06:50:50.514Z,100.00
2022-09-27T06:53:20.603Z,100.00
2022-09-27T06:55:48.051Z,100.00
2022-09-27T06:58:34.279Z,100.00
2022-09-27T07:01:27.987Z,100.00
2022-09-27T07:04:13.622Z,100.00
2022-09-27T07:06:57.840Z,100.00
2022-09-27T07:09:27.848Z,98.54
2022-09-27T07:11:55.889Z,91.09
2022-09-27T07:14:23.745Z,89.63
2022-09-27T07:16:53.649Z,85.63
2022-09-27T07:19:23.176Z,78.39
2022-09-27T07:21:52.602Z,69.97
2022-09-27T07:24:20.308Z,67.08
2022-09-27T07:26:48.866Z,62.65
2022-09-27T07:29:18.574Z,59.03
2022-09-27T07:31:46.153Z,56.42
2022-09-27T07:34:13.583Z,54.47
2022-09-27T07:36:40.996Z,49.05
2022-09-27T07:39:09.868Z,46.17
2022-09-27T07:41:39.239Z,46.16
2022-09-27T07:44:08.147Z,45.95
2022-09-27T07:46:45.017Z,45.09
2022-09-27T07:49:20.002Z,44.04
2022-09-27T07:52:19.758Z,43.12
2022-09-27T07:55:11.075Z,44.43
2022-09-27T07:58:09.004Z,51.30
2022-09-27T08:00:37.584Z,53.04
2022-09-27T08:03:10.965Z,52.64
2022-09-27T08:05:38.706Z,50.94
2022-09-27T08:08:06.194Z,46.88
2022-09-27T08:10:34.321Z,43.60
2022-09-27T08:13:05.787Z,41.56
2022-09-27T08:15:36.022Z,41.68
2022-09-27T08:18:03.568Z,39.52
2022-09-27T08:20:59.402Z,37.70
2022-09-27T08:23:36.930Z,38.23
2022-09-27T08:26:30.230Z,38.90
2022-09-27T08:29:12.751Z,38.30
2022-09-27T08:31:45.076Z,38.92
2022-09-27T08:34:12.557Z,39.68
2022-09-27T08:36:40.034Z,38.18
2022-09-27T08:39:07.396Z,38.44
2022-09-27T08:42:01.972Z,37.39
2022-09-27T08:44:43.017Z,37.33
2022-09-27T08:47:34.999Z,37.95
2022-09-27T08:50:22.907Z,38.47
2022-09-27T08:53:03.541Z,37.62
2022-09-27T08:55:37.394Z,39.08
2022-09-27T08:58:30.631Z,37.61
2022-09-27T09:01:03.344Z,37.17
2022-09-27T09:03:43.974Z,37.08
2022-09-27T09:06:14.386Z,36.47
2022-09-27T09:08:50.941Z,37.66
2022-09-27T09:11:55.119Z,36.18
2022-09-27T09:14:45.772Z,37.42
2022-09-27T09:17:17.662Z,38.84
2022-09-27T09:20:20.239Z,37.29
2022-09-27T09:23:30.654Z,39.52
2022-09-27T09:26:03.411Z,39.85
2022-09-27T09:28:46.132Z,40.23
2022-09-27T09:31:35.711Z,39.26
2022-09-27T09:34:36.846Z,39.21
2022-09-27T09:37:45.331Z,39.71
2022-09-27T09:40:46.224Z,38.50
2022-09-27T09:43:24.061Z,38.32
2022-09-27T09:46:02.328Z,40.87
2022-09-27T09:48:32.279Z,40.04
2022-09-27T09:51:02.335Z,40.64
2022-09-27T09:53:32.652Z,40.99
2022-09-27T09:56:09.492Z,41.39
2022-09-27T09:58:43.642Z,42.94
2022-09-27T10:01:27.979Z,49.21
2022-09-27T10:03:57.086Z,49.20
2022-09-27T10:06:26.546Z,48.94
2022-09-27T10:08:55.764Z,45.97
2022-09-27T10:11:39.643Z,45.11
2022-09-27T10:14:18.398Z,47.71
2022-09-27T10:16:49.135Z,48.89
2022-09-27T10:19:26.902Z,46.93
2022-09-27T10:22:02.719Z,45.04
2022-09-27T10:24:59.056Z,44.14
2022-09-27T10:27:48.956Z,46.00
2022-09-27T10:30:29.390Z,45.73
2022-09-27T10:33:04.362Z,49.08
2022-09-27T10:35:47.037Z,49.74
2022-09-27T10:38:34.805Z,52.00
2022-09-27T10:41:35.002Z,53.60
2022-09-27T10:44:15.546Z,54.27
2022-09-27T10:46:46.331Z,51.30
2022-09-27T10:49:41.408Z,50.65
2022-09-27T10:52:27.380Z,50.32
2022-09-27T10:55:01.693Z,49.79
2022-09-27T10:57:31.124Z,47.50
2022-09-27T11:00:07.494Z,48.79
2022-09-27T11:02:37.582Z,47.38
2022-09-27T11:05:30.947Z,47.07
2022-09-27T11:08:00.216Z,47.79
2022-09-27T11:11:24.361Z,46.87
2022-09-27T11:14:00.916Z,46.68
2022-09-27T11:17:07.610Z,46.85
2022-09-27T11:20:23.351Z,47.74
2022-09-27T11:23:21.804Z,46.38
2022-09-27T11:26:05.686Z,45.51
2022-09-27T11:28:42.102Z,45.49
2022-09-27T11:31:43.019Z,45.89
2022-09-27T11:34:31.720Z,45.37
2022-09-27T11:37:11.920Z,43.60
2022-09-27T11:39:48.666Z,45.88
2022-09-27T11:42:53.549Z,49.05
2022-09-27T11:46:15.302Z,51.41
2022-09-27T11:49:02.456Z,48.10
2022-09-27T11:52:14.676Z,46.70
2022-09-27T11:54:55.170Z,45.71
2022-09-27T11:57:31.952Z,44.68
2022-09-27T12:00:05.894Z,45.57
2022-09-27T12:03:15.055Z,46.65
2022-09-27T12:05:58.705Z,46.38
2022-09-27T12:08:36.404Z,46.77
2022-09-27T12:11:16.333Z,45.89
2022-09-27T12:13:48.914Z,49.26
2022-09-27T12:16:19.545Z,50.58
2022-09-27T12:18:51.602Z,48.91
2022-09-27T12:21:39.224Z,46.57
2022-09-27T12:24:09.090Z,46.32
2022-09-27T12:26:49.504Z,44.74
2022-09-27T12:29:31.625Z,43.35
2022-09-27T12:32:11.547Z,43.18
2022-09-27T12:34:56.352Z,43.28
2022-09-27T12:37:28.843Z,43.26
2022-09-27T12:40:02.327Z,42.06
2022-09-27T12:45:39.490Z,45.11
2022-09-27T12:48:10.686Z,44.61
2022-09-27T12:50:53.271Z,45.85
2022-09-27T12:53:30.318Z,44.77
2022-09-27T12:56:14.226Z,42.86
2022-09-27T12:59:17.591Z,42.61
2022-09-27T13:01:58.435Z,41.84
2022-09-27T13:04:34.055Z,41.51
2022-09-27T13:07:14.594Z,41.67
2022-09-27T13:10:26.291Z,42.45
2022-09-27T13:12:57.225Z,42.47
2022-09-27T13:15:31.563Z,43.14
2022-09-27T13:18:03.691Z,42.95
2022-09-27T13:20:42.584Z,43.42
2022-09-27T13:23:40.852Z,42.28
2022-09-27T13:26:32.959Z,41.07
2022-09-27T13:29:04.710Z,43.11
2022-09-27T13:31:54.536Z,42.16
2022-09-27T13:34:55.101Z,42.09
2022-09-27T13:37:36.802Z,41.76
2022-09-27T13:40:18.428Z,42.14
2022-09-27T13:43:17.764Z,41.47
2022-09-27T13:45:57.149Z,43.05
2022-09-27T13:48:32.563Z,42.51
2022-09-27T13:51:21.845Z,42.23
2022-09-27T13:54:00.974Z,41.65
2022-09-27T13:56:38.231Z,42.51
2022-09-27T13:59:12.117Z,43.37
2022-09-27T14:02:29.916Z,43.53
2022-09-27T14:05:01.151Z,43.08
2022-09-27T14:07:40.554Z,41.92
2022-09-27T14:10:16.222Z,43.29
2022-09-27T14:12:45.591Z,43.25
2022-09-27T14:15:22.709Z,44.15
2022-09-27T14:17:50.809Z,41.97
2022-09-27T14:20:34.338Z,43.82
2022-09-27T14:23:03.986Z,43.32
2022-09-27T14:25:44.422Z,44.54
2022-09-27T14:28:25.066Z,45.43
2022-09-27T14:31:18.371Z,46.39
2022-09-27T14:34:08.663Z,46.52
2022-09-27T14:37:01.415Z,46.74
2022-09-27T14:39:35.757Z,45.41
2022-09-27T14:42:20.928Z,46.57
2022-09-27T14:44:49.944Z,46.87
2022-09-27T14:47:28.226Z,46.40
2022-09-27T14:49:59.749Z,46.29
2022-09-27T14:52:35.387Z,46.50
2022-09-27T14:55:15.435Z,46.01
2022-09-27T14:57:49.380Z,46.95
2022-09-27T15:00:18.584Z,47.00
2022-09-27T15:02:46.295Z,47.43
2022-09-27T15:05:19.070Z,47.27
2022-09-27T15:07:47.746Z,48.43
2022-09-27T15:10:35.926Z,48.37
2022-09-27T15:13:05.211Z,49.73
2022-09-27T15:15:35.590Z,49.85
2022-09-27T15:18:04.049Z,50.41
2022-09-27T15:20:35.366Z,51.51
2022-09-27T15:23:07.547Z,51.67
2022-09-27T15:25:38.038Z,51.25
2022-09-27T15:28:11.247Z,51.37
2022-09-27T15:30:41.250Z,51.72
2022-09-27T15:33:21.261Z,52.42
2022-09-27T15:35:54.467Z,52.95
2022-09-27T15:38:47.456Z,52.82
2022-09-27T15:41:17.048Z,53.56
2022-09-27T15:43:47.959Z,53.26
2022-09-27T15:46:36.645Z,53.04
2022-09-27T15:49:26.781Z,53.62
2022-09-27T15:51:55.904Z,53.59
2022-09-27T15:54:27.109Z,53.67
2022-09-27T15:56:56.228Z,54.15
2022-09-27T15:59:28.654Z,53.97
2022-09-27T16:01:58.879Z,53.87
2022-09-27T16:04:27.559Z,52.93
2022-09-27T16:06:55.023Z,53.34
2022-09-27T16:09:22.553Z,53.52
2022-09-27T16:11:50.710Z,54.12
2022-09-27T16:14:19.683Z,54.11
2022-09-27T16:16:50.682Z,55.58
2022-09-27T16:19:18.465Z,55.88
2022-09-27T16:21:47.704Z,56.24
2022-09-27T16:24:17.145Z,55.99
2022-09-27T16:26:44.821Z,56.98
2022-09-27T16:29:14.558Z,58.07
2022-09-27T16:31:42.766Z,57.99
2022-09-27T16:34:11.776Z,57.46
2022-09-27T16:36:39.674Z,57.91
2022-09-27T16:39:10.551Z,57.06
2022-09-27T16:41:38.128Z,58.33
2022-09-27T16:44:10.876Z,57.83
2022-09-27T16:46:41.838Z,59.09
2022-09-27T16:49:29.521Z,59.72
2022-09-27T16:52:00.190Z,59.80
2022-09-27T16:54:30.922Z,60.53
2022-09-27T16:56:59.364Z,60.92
2022-09-27T16:59:27.199Z,60.99
2022-09-27T17:01:57.452Z,61.13
2022-09-27T17:04:26.027Z,60.92
2022-09-27T17:06:54.052Z,61.07
2022-09-27T17:09:21.836Z,61.40
2022-09-27T17:11:49.431Z,61.53
2022-09-27T17:14:17.662Z,61.99
2022-09-27T17:16:47.033Z,62.45
2022-09-27T17:19:15.947Z,63.19
2022-09-27T17:21:43.569Z,63.30
2022-09-27T17:24:13.831Z,64.04
2022-09-27T17:26:41.496Z,64.27
2022-09-27T17:29:11.217Z,64.29
2022-09-27T17:31:40.400Z,64.08
2022-09-27T17:34:12.240Z,63.92
2022-09-27T17:36:41.673Z,64.10
2022-09-27T17:39:13.981Z,64.14
2022-09-27T17:41:42.325Z,65.28
2022-09-27T17:44:16.040Z,65.38
2022-09-27T17:47:20.731Z,65.90
2022-09-27T17:50:06.675Z,65.93
2022-09-27T17:52:34.419Z,66.45
2022-09-27T17:55:01.882Z,66.80
2022-09-27T17:57:29.178Z,66.72
2022-09-27T17:59:57.967Z,66.05
2022-09-27T18:02:26.498Z,66.22
2022-09-27T18:04:53.799Z,65.51
2022-09-27T18:07:23.997Z,67.08
2022-09-27T18:09:51.642Z,68.41
2022-09-27T18:12:18.893Z,68.62
2022-09-27T18:14:46.171Z,68.99
2022-09-27T18:17:14.040Z,68.97
2022-09-27T18:19:41.289Z,71.59
2022-09-27T18:22:08.558Z,73.06
2022-09-27T18:24:35.877Z,74.73
2022-09-27T18:27:04.185Z,76.52
2022-09-27T18:29:31.486Z,77.65
2022-09-27T18:31:58.748Z,78.97
2022-09-27T18:34:26.018Z,78.70
2022-09-27T18:36:53.250Z,77.26
2022-09-27T18:39:22.864Z,76.06
2022-09-27T18:41:50.516Z,76.60
2022-09-27T18:44:18.486Z,74.66
2022-09-27T18:46:46.114Z,73.71
2022-09-27T18:49:14.799Z,74.42
2022-09-27T18:51:47.387Z,74.39
2022-09-27T18:54:19.140Z,73.72
2022-09-27T18:56:48.350Z,72.76
2022-09-27T18:59:17.176Z,71.68
2022-09-27T19:01:45.852Z,70.83
2022-09-27T19:04:19.233Z,70.97
2022-09-27T19:06:51.160Z,71.34
2022-09-27T19:09:18.869Z,70.88
2022-09-27T19:11:46.363Z,72.72
2022-09-27T19:14:19.133Z,71.59
2022-09-27T19:16:48.048Z,71.46
2022-09-27T19:19:16.791Z,71.30
2022-09-27T19:21:44.226Z,71.83
2022-09-27T19:24:12.198Z,71.97
2022-09-27T19:26:39.527Z,71.42
2022-09-27T19:29:06.755Z,70.71
2022-09-27T19:31:35.833Z,69.89
2022-09-27T19:34:03.656Z,69.45
2022-09-27T19:36:31.419Z,69.04
2022-09-27T19:38:59.882Z,69.38
2022-09-27T19:41:27.402Z,70.20
2022-09-27T19:43:56.074Z,69.59
2022-09-27T19:46:27.019Z,70.19
2022-09-27T19:48:56.071Z,71.14
2022-09-27T19:51:25.771Z,70.59
2022-09-27T19:53:54.288Z,70.75
2022-09-27T19:56:22.361Z,71.76
2022-09-27T19:58:50.162Z,72.13
2022-09-27T20:01:20.770Z,72.40
2022-09-27T20:03:49.952Z,71.80
2022-09-27T20:06:19.594Z,71.53
2022-09-27T20:08:50.302Z,72.89
2022-09-27T20:11:22.845Z,72.51
2022-09-27T20:13:52.862Z,72.64
2022-09-27T20:16:24.507Z,74.56
2022-09-27T20:18:57.780Z,75.10
2022-09-27T20:21:32.428Z,74.37
2022-09-27T20:24:01.902Z,74.86
2022-09-27T20:26:30.889Z,75.44
2022-09-27T20:29:00.505Z,76.98
2022-09-27T20:31:33.566Z,78.03
2022-09-27T20:34:01.276Z,76.76
2022-09-27T20:36:31.745Z,77.56
2022-09-27T20:39:03.035Z,78.75
2022-09-27T20:41:33.138Z,78.44
2022-09-27T20:44:06.329Z,79.51
2022-09-27T20:46:35.374Z,81.12
2022-09-27T20:49:06.171Z,81.55
2022-09-27T20:51:35.340Z,80.60
2022-09-27T20:54:04.134Z,79.50
2022-09-27T20:56:34.103Z,80.23
2022-09-27T20:59:12.727Z,79.95
2022-09-27T21:01:48.185Z,79.95
2022-09-27T21:04:17.694Z,79.98
2022-09-27T21:06:45.452Z,80.40
2022-09-27T21:09:20.332Z,80.85
2022-09-27T21:11:49.222Z,81.39
2022-09-27T21:14:16.738Z,81.83
2022-09-27T21:16:44.212Z,82.39
2022-09-27T21:19:29.925Z,82.33
2022-09-27T21:21:57.156Z,82.77
2022-09-27T21:24:24.440Z,82.88
2022-09-27T21:26:53.271Z,82.88
2022-09-27T21:29:21.317Z,83.62
2022-09-27T21:31:48.586Z,83.18
2022-09-27T21:34:16.420Z,83.75
2022-09-27T21:36:43.712Z,84.23
2022-09-27T21:39:11.283Z,84.62
2022-09-27T21:41:39.252Z,84.68
2022-09-27T21:44:07.999Z,84.56
2022-09-27T21:46:39.917Z,83.97
2022-09-27T21:49:09.709Z,84.32
2022-09-27T21:51:39.094Z,86.30
2022-09-27T21:54:10.065Z,85.95
2022-09-27T21:56:38.744Z,85.67
2022-09-27T21:59:07.699Z,84.09
2022-09-27T22:01:35.785Z,85.11
2022-09-27T22:04:04.977Z,85.09
2022-09-27T22:06:36.140Z,86.09
2022-09-27T22:09:06.089Z,86.14
2022-09-27T22:11:37.993Z,86.84
2022-09-27T22:14:09.468Z,87.19
2022-09-27T22:16:37.513Z,87.29
2022-09-27T22:19:04.988Z,86.68
2022-09-27T22:21:35.535Z,85.99
2022-09-27T22:24:08.618Z,86.66
2022-09-27T22:26:41.362Z,87.98
2022-09-27T22:29:09.199Z,88.74
2022-09-27T22:31:37.415Z,89.16
2022-09-27T22:34:07.599Z,88.04
2022-09-27T22:36:35.086Z,89.26
2022-09-27T22:39:02.449Z,89.03
2022-09-27T22:41:30.521Z,89.04
2022-09-27T22:43:58.104Z,89.25
2022-09-27T22:46:25.543Z,90.12
2022-09-27T22:48:53.111Z,90.75
2022-09-27T22:51:20.389Z,90.47
2022-09-27T22:53:50.574Z,90.01
2022-09-27T22:56:19.912Z,90.09
2022-09-27T22:58:48.504Z,90.82
2022-09-27T23:01:20.304Z,92.30
2022-09-27T23:03:49.530Z,91.39
2022-09-27T23:06:18.640Z,90.76
2022-09-27T23:08:47.388Z,90.90
2022-09-27T23:11:20.073Z,90.53
2022-09-27T23:13:48.394Z,92.17
2022-09-27T23:16:18.477Z,94.15
2022-09-27T23:18:47.617Z,95.47
2022-09-27T23:21:16.106Z,95.59
2022-09-27T23:23:45.685Z,96.06
2022-09-27T23:26:15.839Z,96.53
2022-09-27T23:28:43.296Z,96.41
2022-09-27T23:31:16.685Z,96.17
2022-09-27T23:33:48.425Z,97.31
2022-09-27T23:36:18.339Z,96.88
2022-09-27T23:38:47.835Z,97.39
2022-09-27T23:41:16.711Z,97.07
2022-09-27T23:43:44.624Z,97.67
2022-09-27T23:46:12.770Z,98.06
2022-09-27T23:48:40.421Z,98.68
2022-09-27T23:51:10.213Z,98.50
2022-09-27T23:53:39.026Z,98.65
2022-09-27T23:56:10.369Z,99.24
2022-09-27T23:58:42.491Z,97.95
